Time;durP1;ratioP1;P1;durP2;ratioP2;P2;SDS_P1;SDS_P2;PMS_P1;PMS_P2;Temp;Humidity;BMP_temperature;BMP_pressure;BME280_temperature;BME280_humidity;BME280_pressure;Samples;Min_cycle;Max_cycle;Signal;HPM_P1;HPM_P2
2023/07/10 00:00:56;;;;;;;1.05;0.95;;;;;;;24.61;86.81;101054.22;4999950;28;20026;-64
2023/07/10 00:03:22;;;;;;;2.53;1.17;;;;;;;24.67;86.53;101051.69;5001070;28;20026;-64
2023/07/10 00:05:47;;;;;;;3.15;1.30;;;;;;;24.59;86.99;101042.09;4994715;28;20105;-65
2023/07/10 00:08:13;;;;;;;4.28;1.08;;;;;;;24.48;87.42;101045.19;4993854;28;20111;-64
2023/07/10 00:10:38;;;;;;;3.40;1.23;;;;;;;24.53;87.08;101039.13;4961448;28;20034;-64
2023/07/10 00:13:04;;;;;;;2.47;1.23;;;;;;;24.51;87.49;101038.78;4992006;28;20510;-63
2023/07/10 00:15:29;;;;;;;1.33;1.00;;;;;;;24.56;86.67;101031.97;4995935;28;20049;-63
2023/07/10 00:17:55;;;;;;;1.83;1.17;;;;;;;24.49;87.04;101041.22;4990669;28;20085;-64
2023/07/10 00:20:25;;;;;;;1.65;1.10;;;;;;;24.41;86.61;101041.88;5001985;28;20038;-65
2023/07/10 00:22:50;;;;;;;1.42;0.85;;;;;;;24.23;87.48;101047.94;4989810;28;20047;-64
2023/07/10 00:25:17;;;;;;;2.05;1.08;;;;;;;24.20;87.75;101045.28;5003236;28;20033;-63
2023/07/10 00:27:47;;;;;;;9.77;1.10;;;;;;;24.24;87.33;101046.69;4998279;28;20050;-64
2023/07/10 00:30:20;;;;;;;1.40;1.10;;;;;;;24.13;88.12;101044.28;4969973;28;20023;-63
2023/07/10 00:32:51;;;;;;;1.30;1.02;;;;;;;24.13;88.01;101044.28;4986257;28;20034;-64
2023/07/10 00:35:18;;;;;;;1.83;1.05;;;;;;;24.00;88.44;101048.94;5003123;28;20037;-63
2023/07/10 00:38:02;;;;;;;1.60;1.20;;;;;;;23.99;88.54;101041.13;4978119;28;20041;-65
2023/07/10 00:40:33;;;;;;;3.17;1.10;;;;;;;24.07;88.45;101035.00;4991352;28;20118;-64
2023/07/10 00:43:12;;;;;;;2.58;1.50;;;;;;;24.07;88.67;101021.25;4989291;28;20054;-63
2023/07/10 00:45:38;;;;;;;1.77;1.20;;;;;;;24.09;89.26;101023.56;4974501;28;20491;-63
2023/07/10 00:48:12;;;;;;;1.27;0.98;;;;;;;24.18;88.72;101023.66;4998733;28;20022;-64
2023/07/10 00:50:46;;;;;;;1.30;0.98;;;;;;;24.17;88.66;101017.41;4978222;28;20442;-63
2023/07/10 00:53:24;;;;;;;1.23;1.10;;;;;;;24.24;88.26;101007.38;4988439;28;20088;-64
2023/07/10 00:55:52;;;;;;;1.98;1.10;;;;;;;24.23;88.39;101012.13;4991427;28;20093;-64
2023/07/10 00:58:38;;;;;;;1.85;1.25;;;;;;;24.30;87.64;101020.16;4995516;28;20514;-64
2023/07/10 01:01:27;;;;;;;4.80;1.08;;;;;;;24.21;88.13;101016.53;4997978;28;20125;-65
2023/07/10 01:03:53;;;;;;;1.52;0.95;;;;;;;24.17;88.03;101022.91;4958494;28;20042;-64
2023/07/10 01:06:22;;;;;;;1.95;1.23;;;;;;;24.10;89.10;101016.81;4994030;28;20052;-64
2023/07/10 01:08:59;;;;;;;1.33;1.02;;;;;;;24.20;88.72;101020.50;4961286;28;20038;-64
2023/07/10 01:11:26;;;;;;;1.48;1.13;;;;;;;24.03;89.44;101014.28;4978457;28;20034;-63
2023/07/10 01:13:53;;;;;;;2.53;1.25;;;;;;;24.10;89.71;101000.31;4990839;28;20034;-63
2023/07/10 01:16:20;;;;;;;3.85;1.88;;;;;;;24.24;88.65;100990.84;4978738;28;20494;-65
2023/07/10 01:18:47;;;;;;;3.13;1.27;;;;;;;24.16;88.85;101001.31;4975434;28;20041;-64
2023/07/10 01:21:18;;;;;;;1.80;1.30;;;;;;;24.30;88.21;101000.88;4987306;28;20038;-65
2023/07/10 01:23:43;;;;;;;;;;;;;;;24.12;89.00;100993.16;4992096;28;20054;-64
2023/07/10 01:26:09;;;;;;;2.58;1.27;;;;;;;24.08;89.56;100999.97;5002461;28;19964;-64
2023/07/10 01:28:35;;;;;;;2.30;1.70;;;;;;;24.04;89.23;100994.56;4986561;28;20033;-65
2023/07/10 01:31:05;;;;;;;3.25;1.38;;;;;;;24.16;88.61;100985.56;4979728;28;20031;-64
2023/07/10 01:33:36;;;;;;;2.10;1.50;;;;;;;24.28;88.49;100997.81;4962746;28;20048;-64
2023/07/10 01:36:03;;;;;;;2.30;1.48;;;;;;;24.26;88.82;100991.19;4988976;28;20035;-64
2023/07/10 01:39:01;;;;;;;2.72;1.48;;;;;;;24.23;88.47;100992.06;4974344;28;20034;-65
2023/07/10 01:41:34;;;;;;;1.98;1.23;;;;;;;24.05;89.52;100992.59;4982680;28;20037;-64
2023/07/10 01:43:59;;;;;;;2.72;1.42;;;;;;;24.11;89.76;100993.59;4979348;28;20038;-65
2023/07/10 01:46:27;;;;;;;1.67;1.30;;;;;;;24.29;88.79;100999.34;4987437;28;20040;-64
2023/07/10 01:49:03;;;;;;;3.85;1.65;;;;;;;24.24;88.68;100986.13;4969946;28;20045;-64
2023/07/10 01:51:28;;;;;;;2.08;1.63;;;;;;;24.32;88.42;100983.91;4991725;28;20511;-63
2023/07/10 01:53:59;;;;;;;1.50;1.15;;;;;;;24.21;89.04;100989.78;4986458;28;20054;-63
2023/07/10 01:56:25;;;;;;;2.00;1.33;;;;;;;24.06;89.89;100994.91;4987791;28;20041;-63
2023/07/10 01:58:52;;;;;;;1.70;1.20;;;;;;;23.97;90.28;100999.50;4974553;28;20041;-64
2023/07/10 02:01:18;;;;;;;2.25;1.35;;;;;;;23.93;90.47;100996.06;4972957;28;20622;-64
2023/07/10 02:03:43;;;;;;;1.25;1.02;;;;;;;23.81;91.22;101008.59;4950153;28;20023;-64
2023/07/10 02:06:12;;;;;;;2.95;1.20;;;;;;;23.84;91.72;100998.69;4984633;28;20558;-64
2023/07/10 02:08:38;;;;;;;1.55;1.23;;;;;;;23.82;91.58;101007.41;4992449;28;20030;-64
2023/07/10 02:11:03;;;;;;;2.03;1.05;;;;;;;23.87;91.73;101004.09;4988971;28;20035;-64
2023/07/10 02:13:28;;;;;;;1.67;1.17;;;;;;;23.86;91.38;101007.28;4972502;28;20379;-64
2023/07/10 02:16:00;;;;;;;3.28;1.50;;;;;;;23.78;92.16;101003.19;4991118;28;20034;-64
2023/07/10 02:18:25;;;;;;;3.92;1.60;;;;;;;23.80;91.54;101009.81;4987813;28;20109;-64
2023/07/10 02:20:53;;;;;;;2.35;1.35;;;;;;;23.71;92.01;101008.91;4978138;28;20034;-63
2023/07/10 02:23:19;;;;;;;2.80;1.50;;;;;;;23.57;92.81;101012.81;4992995;28;20030;-64
2023/07/10 02:25:48;;;;;;;2.08;1.30;;;;;;;23.61;92.92;101005.25;4984283;28;20397;-63
2023/07/10 02:28:15;;;;;;;2.65;1.10;;;;;;;23.63;92.53;101015.81;4980279;28;20036;-64
2023/07/10 02:30:41;;;;;;;2.08;1.27;;;;;;;23.68;92.39;101018.00;4994226;28;20035;-63
2023/07/10 02:33:07;;;;;;;1.45;1.23;;;;;;;23.71;91.93;101014.41;4995860;28;20053;-63
2023/07/10 02:35:32;;;;;;;2.70;1.42;;;;;;;23.57;92.09;101012.03;4998146;28;20030;-65
2023/07/10 02:37:58;;;;;;;2.15;1.50;;;;;;;23.56;93.25;101013.22;4993929;28;20109;-64
2023/07/10 02:40:23;;;;;;;5.13;1.58;;;;;;;23.53;92.85;101005.88;4999358;28;20026;-64
2023/07/10 02:42:49;;;;;;;1.73;1.23;;;;;;;23.47;93.48;101013.09;4980091;28;20089;-65
2023/07/10 02:45:14;;;;;;;2.17;1.23;;;;;;;23.54;93.58;101008.16;5001591;28;20088;-65
2023/07/10 02:47:40;;;;;;;2.63;1.63;;;;;;;23.60;93.32;101019.41;4977025;28;20057;-63
2023/07/10 02:50:08;;;;;;;2.08;1.30;;;;;;;23.62;93.15;101014.25;5000360;28;20037;-64
2023/07/10 02:52:34;;;;;;;3.67;1.75;;;;;;;23.64;93.63;101020.88;5016900;22;20041;-64
2023/07/10 02:54:59;;;;;;;1.98;1.30;;;;;;;23.90;92.36;101027.22;5006181;28;20394;-63
2023/07/10 02:57:25;;;;;;;2.22;1.70;;;;;;;23.76;92.81;101031.16;4993647;28;20124;-63
2023/07/10 02:59:50;;;;;;;2.28;1.45;;;;;;;23.77;92.74;101020.94;5017291;28;20029;-63
2023/07/10 03:02:16;;;;;;;2.58;1.33;;;;;;;23.68;93.58;101018.78;5015156;28;20044;-63
2023/07/10 03:04:42;;;;;;;6.75;1.67;;;;;;;23.79;92.95;101024.75;5001438;28;20029;-63
2023/07/10 03:07:07;;;;;;;2.42;1.52;;;;;;;23.93;92.26;101054.66;4990634;28;20037;-63
2023/07/10 03:09:33;;;;;;;3.05;1.65;;;;;;;23.93;91.58;101087.66;5007126;28;20037;-63
2023/07/10 03:11:58;;;;;;;3.55;2.03;;;;;;;23.89;91.13;101084.25;4981055;28;20898;-62
2023/07/10 03:14:23;;;;;;;2.58;1.50;;;;;;;23.92;90.97;101068.84;4993232;28;20069;-62
2023/07/10 03:16:49;;;;;;;2.70;1.80;;;;;;;23.90;91.45;101061.03;5011647;28;20088;-65
2023/07/10 03:19:14;;;;;;;1.65;1.40;;;;;;;23.97;90.76;101060.81;5011963;28;20048;-62
2023/07/10 03:21:40;;;;;;;2.42;1.42;;;;;;;23.98;90.90;101065.09;4995475;28;20060;-68
2023/07/10 03:24:05;;;;;;;3.20;1.55;;;;;;;23.98;91.42;101065.09;5006489;28;20428;-63
2023/07/10 03:26:31;;;;;;;3.47;1.63;;;;;;;23.93;91.66;101059.38;5014757;28;20030;-64
2023/07/10 03:29:09;;;;;;;5.05;1.65;;;;;;;24.01;91.20;101061.50;5010862;28;20034;-63
2023/07/10 03:31:35;;;;;;;3.03;1.80;;;;;;;24.00;90.97;101061.94;4999230;28;20044;-65
2023/07/10 03:34:01;;;;;;;3.08;1.83;;;;;;;23.94;91.50;101058.19;5009366;28;20042;-63
2023/07/10 03:36:27;;;;;;;2.03;1.77;;;;;;;24.00;91.48;101056.44;5014038;28;20021;-62
2023/07/10 03:38:52;;;;;;;5.10;1.85;;;;;;;24.00;90.82;101061.94;5011000;28;20443;-61
2023/07/10 03:41:18;;;;;;;5.13;1.67;;;;;;;23.91;91.51;101053.53;5010887;28;20060;-61
2023/07/10 03:43:43;;;;;;;3.45;1.88;;;;;;;23.96;91.84;101053.00;5010061;28;20030;-64
2023/07/10 03:46:10;;;;;;;4.57;1.73;;;;;;;23.98;91.75;101043.09;5010905;28;20052;-61
2023/07/10 03:48:36;;;;;;;4.75;2.42;;;;;;;23.74;92.21;101036.31;5011106;28;20049;-62
2023/07/10 03:51:02;;;;;;;3.90;1.80;;;;;;;23.74;92.62;101028.06;5016097;28;20075;-62
2023/07/10 03:53:28;;;;;;;2.42;1.73;;;;;;;23.72;92.71;101040.69;5017588;28;20045;-62
2023/07/10 03:55:54;;;;;;;3.28;1.85;;;;;;;23.78;93.34;101060.97;5010618;28;20060;-63
2023/07/10 03:58:26;;;;;;;2.90;1.83;;;;;;;23.73;93.32;101047.75;5010024;28;20037;-64
2023/07/10 04:00:52;;;;;;;2.72;1.77;;;;;;;23.74;93.41;101046.53;5011136;28;20540;-61
2023/07/10 04:03:20;;;;;;;2.22;1.50;;;;;;;23.78;93.40;101039.75;5000076;28;20033;-61
2023/07/10 04:05:49;;;;;;;1.90;1.45;;;;;;;23.82;93.12;101025.88;5010454;28;20041;-64
2023/07/10 04:08:15;;;;;;;2.90;2.03;;;;;;;23.77;93.45;101026.44;5013848;28;20120;-64
2023/07/10 04:10:47;;;;;;;4.03;1.80;;;;;;;23.83;93.10;101044.69;5017595;28;20129;-63
2023/07/10 04:13:12;;;;;;;6.13;1.83;;;;;;;23.79;93.49;101032.28;5010188;28;20046;-65
2023/07/10 04:15:38;;;;;;;3.30;1.80;;;;;;;23.89;93.31;101011.91;5010250;28;20047;-62
2023/07/10 04:18:03;;;;;;;4.45;2.00;;;;;;;23.88;93.21;101026.88;5003852;28;20033;-63
2023/07/10 04:20:28;;;;;;;3.28;1.88;;;;;;;23.93;92.81;101018.09;5010769;28;20509;-64
2023/07/10 04:22:54;;;;;;;3.28;2.00;;;;;;;23.87;92.92;101012.34;5009263;28;20037;-61
2023/07/10 04:25:19;;;;;;;2.38;1.70;;;;;;;23.82;93.54;101006.63;5008453;28;20096;-63
2023/07/10 04:27:45;;;;;;;2.42;1.95;;;;;;;23.80;94.13;101004.31;5008260;28;20044;-63
2023/07/10 04:30:11;;;;;;;3.95;2.28;;;;;;;23.86;93.76;101015.53;5010584;28;20117;-62
2023/07/10 04:32:37;;;;;;;6.97;2.75;;;;;;;23.81;94.25;101021.59;4988996;28;20521;-64
2023/07/10 04:35:03;;;;;;;3.03;1.80;;;;;;;23.86;93.82;101016.31;5002138;28;20037;-63
2023/07/10 04:37:28;;;;;;;2.20;1.75;;;;;;;23.94;93.48;101009.38;4995192;28;20049;-65
2023/07/10 04:39:54;;;;;;;4.32;2.28;;;;;;;23.76;93.77;101005.59;4996571;28;20057;-63
2023/07/10 04:42:19;;;;;;;3.50;2.05;;;;;;;23.68;94.89;100996.78;4998647;28;20038;-65
2023/07/10 04:44:44;;;;;;;6.43;2.20;;;;;;;23.75;94.81;101001.31;5010070;28;20042;-67
2023/07/10 04:47:10;;;;;;;2.85;2.00;;;;;;;23.77;94.94;100988.66;4992092;28;20042;-63
2023/07/10 04:49:35;;;;;;;8.23;2.63;;;;;;;23.80;95.13;101003.53;5010334;28;20034;-65
2023/07/10 04:52:01;;;;;;;2.70;2.22;;;;;;;23.82;95.02;100996.41;5009560;28;20402;-63
2023/07/10 04:54:26;;;;;;;4.93;2.20;;;;;;;23.77;95.27;100996.16;5013252;28;20053;-64
2023/07/10 04:56:52;;;;;;;3.50;2.40;;;;;;;23.81;95.14;100988.59;5001299;28;20038;-65
2023/07/10 04:59:18;;;;;;;4.38;2.53;;;;;;;23.83;95.38;100991.63;5010599;28;20068;-64
2023/07/10 05:01:44;;;;;;;4.85;2.35;;;;;;;23.90;95.63;100978.47;5007384;28;20034;-65
2023/07/10 05:04:09;;;;;;;4.47;2.30;;;;;;;23.91;95.61;100988.25;5013681;28;20437;-62
2023/07/10 05:06:37;;;;;;;5.05;1.88;;;;;;;23.88;95.23;100971.84;4989044;28;20032;-64
2023/07/10 05:09:03;;;;;;;4.05;2.38;;;;;;;24.02;95.17;100976.97;5004838;28;20474;-63
2023/07/10 05:11:30;;;;;;;3.72;2.50;;;;;;;24.16;94.63;100977.31;5010656;28;20128;-63
2023/07/10 05:13:57;;;;;;;5.18;2.15;;;;;;;24.22;93.60;100971.25;5008435;28;20029;-62
2023/07/10 05:16:25;;;;;;;3.47;2.28;;;;;;;24.15;93.88;100964.00;4980965;28;21351;-62
2023/07/10 05:18:51;;;;;;;4.78;2.22;;;;;;;24.10;94.14;100973.56;4985948;28;20400;-63
2023/07/10 05:21:16;;;;;;;3.97;2.08;;;;;;;24.26;93.82;100972.69;5017629;28;20409;-61
2023/07/10 05:23:42;;;;;;;2.75;2.20;;;;;;;24.27;93.60;100970.72;5005949;28;20034;-64
2023/07/10 05:26:12;;;;;;;3.60;2.33;;;;;;;24.30;93.32;100981.63;4995638;28;20036;-63
2023/07/10 05:28:38;;;;;;;3.75;2.33;;;;;;;24.34;92.71;100973.25;5016607;28;20038;-62
2023/07/10 05:31:06;;;;;;;3.55;2.38;;;;;;;24.36;91.98;100979.06;4993410;28;20057;-61
2023/07/10 05:33:32;;;;;;;2.45;1.92;;;;;;;24.50;91.95;100973.13;5008829;28;20053;-67
2023/07/10 05:36:00;;;;;;;6.10;2.03;;;;;;;24.52;90.82;100968.72;5006946;28;20041;-64
2023/07/10 05:38:28;;;;;;;3.58;2.03;;;;;;;24.61;90.18;100973.56;4979392;28;20025;-62
2023/07/10 05:40:54;;;;;;;3.38;1.92;;;;;;;24.35;90.79;100974.78;5007962;28;20017;-65
2023/07/10 05:43:20;;;;;;;3.20;1.90;;;;;;;24.56;91.45;100985.13;5008027;28;20087;-63
2023/07/10 05:45:49;;;;;;;3.25;2.30;;;;;;;24.68;90.76;100982.34;5008217;28;20045;-67
2023/07/10 05:48:15;;;;;;;5.40;2.20;;;;;;;24.53;90.59;100989.53;4999877;28;20026;-65
2023/07/10 05:50:43;;;;;;;4.30;2.15;;;;;;;24.51;90.71;100988.44;4998115;28;20092;-65
2023/07/10 05:53:09;;;;;;;3.33;2.03;;;;;;;24.60;90.68;100992.06;5012218;28;20041;-63
2023/07/10 05:55:34;;;;;;;2.75;1.65;;;;;;;24.67;91.13;100994.59;5022329;28;20485;-62
2023/07/10 05:57:59;;;;;;;6.90;2.20;;;;;;;24.83;91.79;100999.25;5015752;28;20072;-61
2023/07/10 06:00:25;;;;;;;3.33;2.63;;;;;;;24.99;92.17;100999.84;4991862;28;20029;-61
2023/07/10 06:02:51;;;;;;;3.08;1.77;;;;;;;25.10;92.47;100995.97;5008659;28;20045;-65
2023/07/10 06:05:16;;;;;;;5.55;2.55;;;;;;;25.23;91.79;100997.47;5013383;28;20041;-64
2023/07/10 06:07:42;;;;;;;3.03;1.98;;;;;;;25.28;90.21;100987.88;5013111;28;20038;-65
2023/07/10 06:10:07;;;;;;;6.35;2.20;;;;;;;25.32;89.73;101002.31;4996666;28;20095;-64
2023/07/10 06:12:33;;;;;;;4.40;1.88;;;;;;;25.31;88.85;100998.00;5016734;28;20018;-65
2023/07/10 06:14:58;;;;;;;2.33;1.70;;;;;;;25.33;88.89;100990.06;4994048;28;20034;-65
2023/07/10 06:17:24;;;;;;;2.30;2.03;;;;;;;25.44;89.15;100994.00;5020030;28;20038;-65
2023/07/10 06:19:50;;;;;;;4.32;2.50;;;;;;;25.66;89.32;100989.28;5012406;28;20054;-61
2023/07/10 06:22:16;;;;;;;4.40;2.40;;;;;;;25.94;89.50;100988.22;5010988;28;20088;-64
2023/07/10 06:24:41;;;;;;;3.85;2.00;;;;;;;26.18;87.88;100983.00;5013017;28;20034;-65
2023/07/10 06:27:07;;;;;;;2.35;1.70;;;;;;;26.37;86.31;100989.38;4995517;28;20045;-65
2023/07/10 06:29:36;;;;;;;5.85;2.00;;;;;;;26.26;84.85;100998.09;5012827;28;20034;-66
2023/07/10 06:32:01;;;;;;;9.02;1.95;;;;;;;26.26;84.13;101000.84;5002498;28;20077;-64
2023/07/10 06:34:28;;;;;;;3.60;1.55;;;;;;;26.24;84.31;100994.22;5009701;28;20041;-65
2023/07/10 06:36:54;;;;;;;2.80;1.83;;;;;;;26.20;85.12;100994.38;5012985;28;20416;-65
2023/07/10 06:39:19;;;;;;;2.88;1.75;;;;;;;26.09;85.47;100998.75;5012685;28;20021;-66
2023/07/10 06:41:45;;;;;;;3.25;1.73;;;;;;;26.05;85.34;100996.13;5005950;28;20109;-65
2023/07/10 06:44:12;;;;;;;3.28;1.83;;;;;;;26.01;84.89;101002.97;4993968;28;20097;-65
2023/07/10 06:46:38;;;;;;;5.15;1.88;;;;;;;25.76;86.81;100999.13;5003989;28;20034;-63
2023/07/10 06:49:03;;;;;;;5.20;2.00;;;;;;;25.72;87.36;100997.75;5023673;28;20032;-66
2023/07/10 06:51:29;;;;;;;3.45;1.63;;;;;;;25.63;88.26;100987.41;5012011;28;20026;-65
2023/07/10 06:53:54;;;;;;;2.65;1.70;;;;;;;25.73;87.63;100991.00;4963150;28;20038;-65
2023/07/10 06:56:20;;;;;;;3.63;1.80;;;;;;;25.75;88.00;101002.34;5007407;28;20037;-66
2023/07/10 06:58:46;;;;;;;3.22;1.88;;;;;;;25.84;87.24;100994.91;5012250;28;20018;-66
2023/07/10 07:01:11;;;;;;;3.45;2.17;;;;;;;25.91;87.19;100997.41;4969512;28;20277;-66
2023/07/10 07:03:40;;;;;;;4.30;2.22;;;;;;;25.94;88.11;100981.91;5019211;28;20045;-64
2023/07/10 07:06:07;;;;;;;4.32;2.33;;;;;;;26.08;87.20;100973.13;5007917;28;20055;-66
2023/07/10 07:08:32;;;;;;;4.35;2.50;;;;;;;26.07;86.24;100973.59;5020887;28;20037;-64
2023/07/10 07:10:57;;;;;;;5.35;2.70;;;;;;;26.04;85.99;100988.25;5009914;28;20034;-65
2023/07/10 07:13:23;;;;;;;3.78;2.40;;;;;;;26.05;85.83;100987.03;5005640;28;20042;-65
2023/07/10 07:15:50;;;;;;;3.55;2.25;;;;;;;25.97;85.99;100975.50;5011591;28;20083;-64
2023/07/10 07:18:16;;;;;;;4.28;2.50;;;;;;;25.89;86.94;100979.75;5011953;28;20431;-66
2023/07/10 07:20:41;;;;;;;4.80;2.60;;;;;;;25.85;87.15;101004.72;4975946;28;20035;-66
2023/07/10 07:23:06;;;;;;;10.00;3.38;;;;;;;25.80;88.23;101005.31;4973512;28;20034;-65
2023/07/10 07:25:32;;;;;;;7.20;3.78;;;;;;;25.77;88.10;101005.44;5005214;28;20707;-62
2023/07/10 07:27:59;;;;;;;4.72;3.30;;;;;;;25.69;88.34;101012.44;4995985;28;20034;-65
2023/07/10 07:30:27;;;;;;;5.38;3.50;;;;;;;25.55;89.19;101002.66;5009982;28;20077;-66
2023/07/10 07:32:52;;;;;;;6.32;3.13;;;;;;;25.51;89.49;101006.78;5019730;28;20045;-65
2023/07/10 07:35:18;;;;;;;4.10;3.13;;;;;;;25.54;88.83;101005.88;5010131;28;20030;-65
2023/07/10 07:37:43;;;;;;;4.20;3.10;;;;;;;25.37;88.97;101002.50;5010799;28;20375;-64
2023/07/10 07:40:09;;;;;;;4.68;2.95;;;;;;;25.25;90.21;100997.03;5011296;28;20124;-66
2023/07/10 07:42:35;;;;;;;6.40;3.35;;;;;;;25.25;90.21;101000.56;5008073;28;20097;-65
2023/07/10 07:45:01;;;;;;;4.90;3.20;;;;;;;25.30;90.53;101010.28;4993963;28;20106;-66
2023/07/10 07:47:27;;;;;;;4.60;3.10;;;;;;;25.27;91.20;101017.44;5011196;28;20021;-65
2023/07/10 07:49:53;;;;;;;6.38;3.13;;;;;;;25.33;90.52;101017.63;5021356;28;20422;-65
2023/07/10 07:52:18;;;;;;;6.10;3.85;;;;;;;25.36;89.53;101028.53;5009152;28;20038;-67
2023/07/10 07:54:44;;;;;;;7.93;3.85;;;;;;;25.30;89.62;101021.31;4987172;28;20038;-65
2023/07/10 07:57:09;;;;;;;9.18;3.72;;;;;;;25.36;88.04;101030.56;5011124;28;20022;-65
2023/07/10 07:59:35;;;;;;;4.30;3.10;;;;;;;25.19;88.57;101026.38;4985154;28;20061;-65
2023/07/10 08:02:00;;;;;;;4.32;3.10;;;;;;;25.27;88.15;101028.47;5009352;28;20084;-64
2023/07/10 08:04:26;;;;;;;6.10;3.03;;;;;;;25.25;88.19;101035.66;5012739;28;20034;-65
2023/07/10 08:06:56;;;;;;;5.47;2.38;;;;;;;25.38;87.91;101041.88;5006134;28;20038;-66
2023/07/10 08:09:21;;;;;;;3.22;2.35;;;;;;;25.67;86.52;101028.66;5018001;28;20450;-65
2023/07/10 08:11:47;;;;;;;3.55;2.17;;;;;;;25.64;86.30;101038.63;5005589;28;20041;-64
2023/07/10 08:14:12;;;;;;;3.40;2.20;;;;;;;25.73;85.84;101048.97;4997106;28;20112;-65
2023/07/10 08:16:37;;;;;;;2.85;1.92;;;;;;;25.79;84.17;101047.16;5007872;28;20034;-63
2023/07/10 08:19:03;;;;;;;3.53;1.88;;;;;;;25.89;83.72;101054.28;5010731;28;20028;-65
2023/07/10 08:21:28;;;;;;;2.85;1.90;;;;;;;25.82;84.46;101055.31;5005699;28;20030;-66
2023/07/10 08:23:54;;;;;;;2.88;1.75;;;;;;;25.90;84.99;101047.53;5009941;28;20499;-66
2023/07/10 08:26:19;;;;;;;2.97;1.90;;;;;;;26.05;84.28;101048.59;4993225;28;20102;-65
2023/07/10 08:28:44;;;;;;;3.35;2.25;;;;;;;26.07;83.16;101050.91;5010463;28;20025;-64
2023/07/10 08:31:10;;;;;;;2.60;2.10;;;;;;;26.01;82.29;101055.44;5010180;28;20038;-63
2023/07/10 08:33:35;;;;;;;5.13;3.33;;;;;;;25.87;82.87;101056.72;5010108;28;20048;-64
2023/07/10 08:36:04;;;;;;;3.58;1.92;;;;;;;25.81;83.09;101064.06;4993108;28;20487;-65
2023/07/10 08:38:33;;;;;;;3.70;2.00;;;;;;;25.61;83.84;101063.59;5011701;28;20036;-64
2023/07/10 08:41:19;;;;;;;3.90;2.08;;;;;;;25.50;84.88;101055.69;5018579;28;20043;-65
2023/07/10 08:43:45;;;;;;;3.13;1.80;;;;;;;25.51;84.83;101067.50;5007035;28;20469;-66
2023/07/10 08:46:16;;;;;;;2.70;1.90;;;;;;;25.49;85.20;101062.41;5002345;28;20092;-65
2023/07/10 08:48:47;;;;;;;2.10;1.70;;;;;;;25.62;85.12;101068.66;4994290;28;20467;-66
2023/07/10 08:54:16;;;;;;;1.98;1.40;;;;;;;25.65;83.34;101078.03;4912100;29;20127;-64
2023/07/10 08:56:47;;;;;;;3.58;1.80;;;;;;;25.53;83.21;101073.34;4931222;29;20067;-63
2023/07/10 08:59:18;;;;;;;;;;;;;;;25.54;82.79;101072.09;4942549;29;20050;-64
2023/07/10 09:01:46;;;;;;;3.05;1.90;;;;;;;25.45;83.41;101074.78;4930230;29;20756;-64
2023/07/10 09:04:15;;;;;;;3.05;1.67;;;;;;;25.45;83.66;101074.78;4931880;29;20028;-64
2023/07/10 09:06:47;;;;;;;2.22;1.50;;;;;;;25.45;83.65;101077.56;4929849;29;20110;-62
2023/07/10 09:09:40;;;;;;;5.20;1.80;;;;;;;25.39;83.56;101084.81;4923120;29;20059;-64
2023/07/10 09:12:33;;;;;;;4.03;1.50;;;;;;;25.46;84.61;101090.13;4930571;29;20031;-64
2023/07/10 09:15:05;;;;;;;3.35;1.70;;;;;;;25.56;83.68;101089.00;4929370;29;20485;-64
2023/07/10 09:17:51;;;;;;;2.25;1.40;;;;;;;25.70;84.49;101099.53;4924473;29;20035;-64
2023/07/10 09:20:20;;;;;;;2.63;1.27;;;;;;;26.07;83.56;101095.88;4931746;29;20039;-64
2023/07/10 09:22:54;;;;;;;3.13;1.55;;;;;;;26.36;83.13;101103.88;4931459;29;20505;-64
2023/07/10 09:25:21;;;;;;;2.53;1.52;;;;;;;26.70;82.57;101101.78;4930653;29;20539;-63
2023/07/10 09:27:47;;;;;;;3.15;1.80;;;;;;;26.94;80.22;101106.78;4930102;29;20031;-64
2023/07/10 09:30:37;;;;;;;2.25;1.45;;;;;;;26.80;80.10;101110.88;4931780;29;20031;-62
2023/07/10 09:33:05;;;;;;;3.28;1.67;;;;;;;26.78;79.44;101103.06;4925465;29;20050;-63
2023/07/10 09:35:34;;;;;;;4.47;1.75;;;;;;;26.90;79.04;101106.94;4922831;29;20044;-64
2023/07/10 09:38:00;;;;;;;3.53;1.85;;;;;;;27.07;78.84;101104.66;4931189;29;20027;-63
2023/07/10 09:40:47;;;;;;;3.13;1.63;;;;;;;27.28;78.59;101103.78;4917235;29;20040;-63
2023/07/10 09:43:21;;;;;;;2.70;1.30;;;;;;;27.44;76.96;101109.88;4929451;29;20036;-63
2023/07/10 09:45:56;;;;;;;3.67;1.50;;;;;;;27.65;75.82;101113.72;4934782;29;20031;-63
2023/07/10 09:48:26;;;;;;;4.07;1.48;;;;;;;27.82;74.45;101111.41;4934903;29;20059;-65
2023/07/10 09:50:53;;;;;;;2.15;1.27;;;;;;;27.95;73.60;101114.84;4935300;29;20094;-66
2023/07/10 09:53:35;;;;;;;4.25;1.02;;;;;;;28.02;71.13;101109.75;4909183;29;20098;-63
2023/07/10 09:56:01;;;;;;;6.93;1.45;;;;;;;27.98;71.25;101116.66;4902906;29;20055;-65
2023/07/10 09:58:27;;;;;;;2.05;1.27;;;;;;;28.12;70.86;101125.13;4910562;29;20028;-65
2023/07/10 10:00:52;;;;;;;1.88;1.20;;;;;;;28.15;69.84;101118.66;4916991;29;20510;-69
2023/07/10 10:03:31;;;;;;;1.63;0.93;;;;;;;28.08;70.43;101129.28;4932564;29;20046;-63
2023/07/10 10:05:57;;;;;;;2.85;0.93;;;;;;;28.10;70.12;101132.38;4935051;29;20043;-62
2023/07/10 10:08:32;;;;;;;2.00;0.95;;;;;;;28.26;70.13;101132.78;4931273;29;20059;-66
2023/07/10 10:11:02;;;;;;;1.60;1.17;;;;;;;28.21;68.28;101127.09;4927376;29;20047;-63
2023/07/10 10:13:29;;;;;;;1.73;0.95;;;;;;;28.33;67.41;101126.16;4923939;29;20028;-63
2023/07/10 10:16:06;;;;;;;3.45;1.10;;;;;;;28.65;66.64;101121.97;4932444;29;20028;-65
2023/07/10 10:19:05;;;;;;;1.33;0.70;;;;;;;28.89;65.59;101131.09;4916859;29;20035;-64
2023/07/10 10:21:34;;;;;;;2.83;1.05;;;;;;;29.01;64.24;101127.34;4924816;29;20028;-63
2023/07/10 10:24:20;;;;;;;2.10;1.00;;;;;;;29.34;62.19;101125.34;4943097;29;20035;-63
2023/07/10 10:26:53;;;;;;;1.00;0.60;;;;;;;29.48;61.32;101132.94;4869067;29;20053;-63
2023/07/10 10:29:42;;;;;;;1.13;0.80;;;;;;;29.47;62.64;101136.97;4858233;29;20053;-62
2023/07/10 10:32:25;;;;;;;1.60;0.63;;;;;;;29.45;61.82;101133.91;4847746;29;20064;-64
2023/07/10 10:35:02;;;;;;;1.13;0.63;;;;;;;29.59;60.42;101144.31;4853526;29;20040;-63
2023/07/10 10:38:05;;;;;;;1.00;0.60;;;;;;;29.75;59.87;101140.38;4856197;29;20064;-65
2023/07/10 10:40:40;;;;;;;1.02;0.57;;;;;;;30.24;57.28;101148.88;4848538;29;20048;-63
2023/07/10 10:43:34;;;;;;;2.47;1.00;;;;;;;30.50;54.92;101161.00;4855739;29;20497;-63
2023/07/10 10:46:08;;;;;;;0.77;0.63;;;;;;;30.30;54.88;101154.56;4855202;29;20188;-64
2023/07/10 10:49:07;;;;;;;1.08;0.70;;;;;;;30.00;55.54;101154.47;4856518;29;20089;-63
2023/07/10 10:51:42;;;;;;;0.65;0.47;;;;;;;30.00;53.86;101150.97;4852260;29;20045;-63
2023/07/10 10:54:23;;;;;;;1.58;0.80;;;;;;;29.96;52.87;101165.03;4844651;29;20098;-63
2023/07/10 10:57:02;;;;;;;2.67;0.70;;;;;;;30.01;54.26;101147.69;4844612;29;20054;-63
2023/07/10 10:59:49;;;;;;;2.50;0.65;;;;;;;30.21;54.11;101150.63;4852761;29;20049;-66
2023/07/10 11:02:17;;;;;;;0.88;0.50;;;;;;;30.51;53.51;101162.53;4853886;29;20034;-65
2023/07/10 11:04:49;;;;;;;0.75;0.40;;;;;;;30.59;51.96;101157.34;4911170;29;20622;-62
2023/07/10 11:07:21;;;;;;;1.30;0.50;;;;;;;30.63;51.42;101157.91;4923503;29;20048;-63
2023/07/10 11:10:00;;;;;;;1.33;0.95;;;;;;;30.41;51.45;101166.63;4932113;29;20063;-62
2023/07/10 11:12:31;;;;;;;0.68;0.60;;;;;;;30.35;52.75;101165.03;4923817;29;20041;-62
2023/07/10 11:15:02;;;;;;;0.88;0.65;;;;;;;30.25;53.36;101178.97;4924578;29;20044;-67
2023/07/10 11:17:28;;;;;;;1.35;0.50;;;;;;;30.12;54.29;101167.34;4929264;29;20038;-64
2023/07/10 11:19:54;;;;;;;2.03;0.75;;;;;;;30.20;54.58;101174.09;4932171;29;20055;-62
2023/07/10 11:22:29;;;;;;;0.82;0.60;;;;;;;30.21;54.37;101178.41;4930311;29;20059;-66
2023/07/10 11:24:55;;;;;;;0.77;0.50;;;;;;;30.27;54.76;101176.50;4931007;29;20063;-63
2023/07/10 11:27:36;;;;;;;0.75;0.55;;;;;;;30.43;54.82;101166.94;4932089;29;20104;-63
2023/07/10 11:30:12;;;;;;;1.13;0.55;;;;;;;30.61;54.34;101175.09;4931892;29;20063;-65
2023/07/10 11:33:18;;;;;;;2.03;0.70;;;;;;;30.72;53.10;101178.06;4927752;29;20035;-68
2023/07/10 11:36:16;;;;;;;1.25;0.70;;;;;;;30.94;51.79;101177.69;4918002;29;20064;-67
2023/07/10 11:39:10;;;;;;;1.48;0.80;;;;;;;30.82;51.38;101173.91;4928134;29;20028;-63